Time,TemperatureF,DewpointF,PressureIn,WindDirection,WindDirectionDegrees,WindSpeedMPH,WindSpeedGustMPH,Humidity,HourlyPrecipIn,Conditions,Clouds,dailyrainin,SolarRadiationWatts/m^2,SoftwareType,DateUTC
2013-05-27 00:00:00,45.7,26.6,29.62,West,281,3.0,3.0,47,0.00,,,0.00,0,Wunderground v.1.15,2013-05-27 06:00:00,
2013-05-27 00:10:00,45.4,24.7,29.62,West,264,4.0,5.0,44,0.00,,,0.00,0,Wunderground v.1.15,2013-05-27 06:10:00,
2013-05-27 00:20:00,45.0,24.4,29.63,WSW,246,5.0,7.0,44,0.00,,,0.00,0,Wunderground v.1.15,2013-05-27 06:20:00,
2013-05-27 00:30:00,45.4,23.6,29.63,West,269,6.0,6.0,42,0.00,,,0.00,0,Wunderground v.1.15,2013-05-27 06:30:00,
2013-05-27 00:40:00,46.9,25.0,29.63,West,265,6.0,6.0,42,0.00,,,0.00,0,Wunderground v.1.15,2013-05-27 06:40:00,
2013-05-27 00:50:00,45.4,24.2,29.62,West,262,5.0,6.0,43,0.00,,,0.00,0,Wunderground v.1.15,2013-05-27 06:50:00,
2013-05-27 01:00:00,44.9,25.3,29.63,West,260,6.0,6.0,46,0.00,,,0.00,0,Wunderground v.1.15,2013-05-27 07:00:00,
2013-05-27 01:10:00,45.1,23.9,29.62,West,266,6.0,6.0,43,0.00,,,0.00,0,Wunderground v.1.15,2013-05-27 07:10:00,
2013-05-27 01:20:00,45.8,25.6,29.62,West,264,6.0,6.0,45,0.00,,,0.00,0,Wunderground v.1.15,2013-05-27 07:20:00,
2013-05-27 01:30:00,47.0,22.0,29.61,West,265,7.0,7.0,37,0.00,,,0.00,0,Wunderground v.1.15,2013-05-27 07:30:00,
2013-05-27 01:50:00,50.5,22.4,29.62,West,265,7.0,8.0,33,0.00,,,0.00,0,Wunderground v.1.15,2013-05-27 07:50:00,
2013-05-27 02:00:00,48.6,23.5,29.61,West,271,7.0,11.0,37,0.00,,,0.00,0,Wunderground v.1.15,2013-05-27 08:00:00,
2013-05-27 02:10:00,47.8,21.4,29.61,WSW,256,7.0,7.0,35,0.00,,,0.00,0,Wunderground v.1.15,2013-05-27 08:10:00,
2013-05-27 02:20:00,46.7,24.2,29.61,WSW,258,5.0,5.0,41,0.00,,,0.00,0,Wunderground v.1.15,2013-05-27 08:20:00,
2013-05-27 02:30:00,45.9,24.6,29.61,West,269,6.0,6.0,43,0.00,,,0.00,0,Wunderground v.1.15,2013-05-27 08:30:00,
2013-05-27 02:40:00,44.3,24.8,29.61,West,280,3.0,5.0,46,0.00,,,0.00,0,Wunderground v.1.15,2013-05-27 08:40:00,
2013-05-27 02:50:00,42.6,25.2,29.60,West,272,6.0,7.0,50,0.00,,,0.00,0,Wunderground v.1.15,2013-05-27 08:50:00,
2013-05-27 03:10:00,47.1,23.4,29.60,WSW,241,8.0,8.0,39,0.00,,,0.00,0,Wunderground v.1.15,2013-05-27 09:10:00,
2013-05-27 03:20:00,46.8,24.3,29.61,WSW,242,6.0,6.0,41,0.00,,,0.00,0,Wunderground v.1.15,2013-05-27 09:20:00,
2013-05-27 03:30:00,45.0,24.4,29.60,WSW,248,1.0,1.0,44,0.00,,,0.00,0,Wunderground v.1.15,2013-05-27 09:30:00,
2013-05-27 03:40:00,43.0,23.6,29.61,WSW,250,0.0,0.0,46,0.00,,,0.00,0,Wunderground v.1.15,2013-05-27 09:40:00,
2013-05-27 03:50:00,41.6,22.8,29.61,West,265,2.0,2.0,47,0.00,,,0.00,0,Wunderground v.1.15,2013-05-27 09:50:00,
2013-05-27 04:00:00,40.7,23.5,29.61,West,269,3.0,5.0,50,0.00,,,0.00,0,Wunderground v.1.15,2013-05-27 10:00:00,
2013-05-27 04:10:00,40.6,23.9,29.61,WSW,256,4.0,4.0,51,0.00,,,0.00,0,Wunderground v.1.15,2013-05-27 10:10:00,
2013-05-27 04:20:00,40.4,23.7,29.61,WSW,256,0.0,0.0,51,0.00,,,0.00,0,Wunderground v.1.15,2013-05-27 10:20:00,
2013-05-27 04:30:00,40.3,23.6,29.61,WSW,256,1.0,3.0,51,0.00,,,0.00,0,Wunderground v.1.15,2013-05-27 10:30:00,
2013-05-27 04:40:00,41.0,22.3,29.61,West,272,6.0,7.0,47,0.00,,,0.00,0,Wunderground v.1.15,2013-05-27 10:40:00,
2013-05-27 04:50:00,41.8,23.5,29.61,West,265,5.0,6.0,48,0.00,,,0.00,0,Wunderground v.1.15,2013-05-27 10:50:00,
2013-05-27 05:00:00,40.6,20.4,29.60,WSW,243,6.0,6.0,44,0.00,,,0.00,0,Wunderground v.1.15,2013-05-27 11:00:00,
2013-05-27 05:10:00,43.4,20.1,29.60,WSW,257,8.0,8.0,39,0.00,,,0.00,0,Wunderground v.1.15,2013-05-27 11:10:00,
2013-05-27 05:20:00,46.1,19.2,29.61,West,260,8.0,9.0,34,0.00,,,0.00,0,Wunderground v.1.15,2013-05-27 11:20:00,
2013-05-27 05:30:00,46.4,19.5,29.61,West,259,8.0,8.0,34,0.00,,,0.00,0,Wunderground v.1.15,2013-05-27 11:30:00,
2013-05-27 05:40:00,45.5,21.3,29.61,WSW,251,7.0,10.0,38,0.00,,,0.00,5,Wunderground v.1.15,2013-05-27 11:40:00,
2013-05-27 05:50:00,44.5,20.4,29.61,WSW,257,6.0,6.0,38,0.00,,,0.00,12,Wunderground v.1.15,2013-05-27 11:50:00,
2013-05-27 06:00:00,43.9,21.1,29.61,WSW,252,5.0,5.0,40,0.00,,,0.00,18,Wunderground v.1.15,2013-05-27 12:00:00,
2013-05-27 06:10:00,45.1,19.7,29.62,WSW,249,6.0,6.0,36,0.00,,,0.00,26,Wunderground v.1.15,2013-05-27 12:10:00,
2013-05-27 06:20:00,47.3,21.7,29.62,SW,223,5.0,5.0,36,0.00,,,0.00,30,Wunderground v.1.15,2013-05-27 12:20:00,
2013-05-27 06:30:00,48.9,24.4,29.62,WSW,248,4.0,5.0,38,0.00,,,0.00,42,Wunderground v.1.15,2013-05-27 12:30:00,
2013-05-27 06:40:00,51.1,19.9,29.62,West,267,5.0,9.0,29,0.00,,,0.00,58,Wunderground v.1.15,2013-05-27 12:40:00,
2013-05-27 06:50:00,53.0,21.6,29.62,WSW,237,5.0,6.0,29,0.00,,,0.00,132,Wunderground v.1.15,2013-05-27 12:50:00,
2013-05-27 07:00:00,54.1,20.8,29.62,WSW,238,6.0,6.0,27,0.00,,,0.00,105,Wunderground v.1.15,2013-05-27 13:00:00,
2013-05-27 07:10:00,54.9,22.4,29.62,WNW,300,4.0,13.0,28,0.00,,,0.00,223,Wunderground v.1.15,2013-05-27 13:10:00,
2013-05-27 07:20:00,55.1,20.8,29.62,NW,319,6.0,13.0,26,0.00,,,0.00,287,Wunderground v.1.15,2013-05-27 13:20:00,
2013-05-27 07:30:00,55.3,21.0,29.61,WNW,289,7.0,7.0,26,0.00,,,0.00,211,Wunderground v.1.15,2013-05-27 13:30:00,
2013-05-27 07:40:00,55.9,24.9,29.61,NW,320,4.0,4.0,30,0.00,,,0.00,153,Wunderground v.1.15,2013-05-27 13:40:00,
2013-05-27 07:50:00,55.3,20.0,29.61,SW,219,2.0,2.0,25,0.00,,,0.00,46,Wunderground v.1.15,2013-05-27 13:50:00,
2013-05-27 08:00:00,53.8,20.6,29.60,West,265,7.0,7.0,27,0.00,,,0.00,44,Wunderground v.1.15,2013-05-27 14:00:00,
2013-05-27 08:10:00,52.8,21.4,29.60,West,259,10.0,10.0,29,0.00,,,0.00,39,Wunderground v.1.15,2013-05-27 14:10:00,
2013-05-27 08:20:00,52.3,21.7,29.59,West,265,8.0,8.0,30,0.00,,,0.00,42,Wunderground v.1.15,2013-05-27 14:20:00,
2013-05-27 08:30:00,51.8,23.6,29.59,WSW,249,7.0,7.0,33,0.00,,,0.00,54,Wunderground v.1.15,2013-05-27 14:30:00,
2013-05-27 08:40:00,52.5,21.1,29.59,SW,232,7.0,7.0,29,0.00,,,0.00,93,Wunderground v.1.15,2013-05-27 14:40:00,
2013-05-27 08:50:00,55.2,23.5,29.59,SW,214,5.0,7.0,29,0.00,,,0.00,570,Wunderground v.1.15,2013-05-27 14:50:00,
2013-05-27 09:00:00,58.4,22.7,29.58,SW,232,4.0,12.0,25,0.00,,,0.00,577,Wunderground v.1.15,2013-05-27 15:00:00,
2013-05-27 09:10:00,60.3,26.1,29.58,SSW,199,6.0,6.0,27,0.00,,,0.00,684,Wunderground v.1.15,2013-05-27 15:10:00,
2013-05-27 09:21:00,61.0,22.9,29.58,SW,223,7.0,7.0,23,0.00,,,0.00,701,Wunderground v.1.15,2013-05-27 15:21:00,
2013-05-27 09:30:00,61.0,23.9,29.58,West,264,7.0,13.0,24,0.00,,,0.00,726,Wunderground v.1.15,2013-05-27 15:30:00,
2013-05-27 09:40:00,61.7,25.5,29.58,WSW,246,8.0,8.0,25,0.00,,,0.00,770,Wunderground v.1.15,2013-05-27 15:40:00,
2013-05-27 09:50:00,62.5,24.2,29.57,NNW,336,5.0,5.0,23,0.00,,,0.00,788,Wunderground v.1.15,2013-05-27 15:50:00,
2013-05-27 10:00:00,62.1,22.8,29.58,South,186,10.0,10.0,22,0.00,,,0.00,809,Wunderground v.1.15,2013-05-27 16:00:00,
2013-05-27 10:10:00,61.8,23.6,29.58,NW,313,8.0,12.0,23,0.00,,,0.00,835,Wunderground v.1.15,2013-05-27 16:10:00,
2013-05-27 10:20:00,62.5,24.2,29.57,WNW,282,6.0,7.0,23,0.00,,,0.00,874,Wunderground v.1.15,2013-05-27 16:20:00,
2013-05-27 10:30:00,62.9,25.5,29.57,WNW,287,7.0,7.0,24,0.00,,,0.00,914,Wunderground v.1.15,2013-05-27 16:30:00,
2013-05-27 10:40:00,63.1,25.7,29.57,SSE,158,7.0,7.0,24,0.00,,,0.00,888,Wunderground v.1.15,2013-05-27 16:40:00,
2013-05-27 10:50:00,63.5,25.0,29.57,SSE,151,4.0,6.0,23,0.00,,,0.00,940,Wunderground v.1.15,2013-05-27 16:50:00,
2013-05-27 11:00:00,63.1,25.7,29.57,SW,219,6.0,6.0,24,0.00,,,0.00,953,Wunderground v.1.15,2013-05-27 17:00:00,
2013-05-27 11:10:00,63.5,26.0,29.57,South,186,4.0,4.0,24,0.00,,,0.00,967,Wunderground v.1.15,2013-05-27 17:10:00,
2013-05-27 11:30:00,64.4,26.8,29.57,SW,233,6.0,6.0,24,0.00,,,0.00,1048,Wunderground v.1.15,2013-05-27 17:30:00,
2013-05-27 11:40:00,64.9,27.2,29.57,WSW,240,3.0,8.0,24,0.00,,,0.00,939,Wunderground v.1.15,2013-05-27 17:40:00,
2013-05-27 12:00:00,63.5,28.0,29.57,ESE,120,3.0,3.0,26,0.00,,,0.00,288,Wunderground v.1.15,2013-05-27 18:00:00,
2013-05-27 12:10:00,62.6,28.1,29.57,North,355,6.0,8.0,27,0.00,,,0.00,186,Wunderground v.1.15,2013-05-27 18:10:00,
2013-05-27 12:20:00,61.6,26.3,29.57,NW,320,6.0,6.0,26,0.00,,,0.00,448,Wunderground v.1.15,2013-05-27 18:20:00,
2013-05-27 12:30:00,62.6,27.2,29.57,SSW,198,4.0,6.0,26,0.00,,,0.00,1118,Wunderground v.1.15,2013-05-27 18:30:00,
2013-05-27 12:40:00,63.2,27.7,29.57,NNW,327,5.0,5.0,26,0.00,,,0.00,378,Wunderground v.1.15,2013-05-27 18:40:00,
2013-05-27 12:50:00,63.5,28.9,29.57,West,281,8.0,11.0,27,0.00,,,0.00,1067,Wunderground v.1.15,2013-05-27 18:50:00,
2013-05-27 13:00:00,66.2,29.3,29.57,WSW,239,5.0,14.0,25,0.00,,,0.00,1125,Wunderground v.1.15,2013-05-27 19:00:00,
2013-05-27 13:10:00,65.5,30.6,29.56,North,355,10.0,10.0,27,0.00,,,0.00,1127,Wunderground v.1.15,2013-05-27 19:10:00,
2013-05-27 13:20:00,64.2,27.6,29.56,WNW,282,6.0,6.0,25,0.00,,,0.00,269,Wunderground v.1.15,2013-05-27 19:20:00,
2013-05-27 13:30:00,63.2,28.6,29.57,WSW,247,10.0,13.0,27,0.00,,,0.00,1179,Wunderground v.1.15,2013-05-27 19:30:00,
2013-05-27 13:40:00,64.5,28.8,29.56,West,271,11.0,11.0,26,0.00,,,0.00,1074,Wunderground v.1.15,2013-05-27 19:40:00,
2013-05-27 13:50:00,62.1,26.8,29.57,WNW,294,13.0,13.0,26,0.00,,,0.00,234,Wunderground v.1.15,2013-05-27 19:50:00,
2013-05-27 14:00:00,61.2,28.7,29.56,NNW,343,11.0,11.0,29,0.00,,,0.00,1127,Wunderground v.1.15,2013-05-27 20:00:00,
2013-05-27 14:10:00,61.9,28.4,29.56,NW,314,7.0,10.0,28,0.00,,,0.00,1227,Wunderground v.1.15,2013-05-27 20:10:00,
2013-05-27 14:20:00,62.7,28.2,29.56,NNE,14,8.0,9.0,27,0.00,,,0.00,427,Wunderground v.1.15,2013-05-27 20:20:00,
2013-05-27 14:30:00,64.7,28.0,29.56,West,276,8.0,12.0,25,0.00,,,0.00,1123,Wunderground v.1.15,2013-05-27 20:30:00,
2013-05-27 14:40:00,64.9,29.2,29.55,WNW,294,9.0,15.0,26,0.00,,,0.00,1062,Wunderground v.1.15,2013-05-27 20:40:00,
2013-05-27 14:50:00,65.6,26.8,29.54,NW,321,11.0,14.0,23,0.00,,,0.00,947,Wunderground v.1.15,2013-05-27 20:50:00,
2013-05-27 15:00:00,66.7,28.7,29.55,WSW,240,11.0,11.0,24,0.00,,,0.00,1032,Wunderground v.1.15,2013-05-27 21:00:00,
2013-05-27 15:10:00,65.2,27.5,29.55,West,271,8.0,8.0,24,0.00,,,0.00,807,Wunderground v.1.15,2013-05-27 21:10:00,
2013-05-27 15:20:00,64.7,28.0,29.55,NW,311,6.0,6.0,25,0.00,,,0.00,475,Wunderground v.1.15,2013-05-27 21:20:00,
2013-05-27 15:30:00,62.8,27.4,29.55,South,173,8.0,19.0,26,0.00,,,0.00,329,Wunderground v.1.15,2013-05-27 21:30:00,
2013-05-27 15:40:00,61.5,28.9,29.55,SSW,198,11.0,11.0,29,0.00,,,0.00,230,Wunderground v.1.15,2013-05-27 21:40:00,
2013-05-27 15:50:00,61.3,28.7,29.55,SW,234,11.0,11.0,29,0.00,,,0.00,870,Wunderground v.1.15,2013-05-27 21:50:00,
2013-05-27 16:00:00,61.5,28.1,29.55,SSW,207,8.0,17.0,28,0.00,,,0.00,243,Wunderground v.1.15,2013-05-27 22:00:00,
2013-05-27 16:20:00,59.8,28.3,29.55,SSE,157,8.0,8.0,30,0.00,,,0.00,123,Wunderground v.1.15,2013-05-27 22:20:00,
2013-05-27 16:30:00,60.9,27.5,29.54,NNE,32,4.0,4.0,28,0.00,,,0.00,823,Wunderground v.1.15,2013-05-27 22:30:00,
2013-05-27 16:40:00,62.3,28.7,29.55,NNW,342,2.0,4.0,28,0.00,,,0.00,246,Wunderground v.1.15,2013-05-27 22:40:00,
2013-05-27 16:50:00,61.8,32.4,29.56,NNW,338,14.0,15.0,33,0.00,,,0.00,740,Wunderground v.1.15,2013-05-27 22:50:00,
2013-05-27 17:00:00,59.0,32.7,29.56,NW,323,15.0,15.0,37,0.00,,,0.00,663,Wunderground v.1.15,2013-05-27 23:00:00,
2013-05-27 17:10:00,59.4,31.0,29.55,WNW,283,10.0,10.0,34,0.00,,,0.00,705,Wunderground v.1.15,2013-05-27 23:10:00,
2013-05-27 17:20:00,60.3,31.8,29.55,NNE,28,7.0,7.0,34,0.00,,,0.00,566,Wunderground v.1.15,2013-05-27 23:20:00,
2013-05-27 17:30:00,61.9,31.7,29.54,NW,308,4.0,4.0,32,0.00,,,0.00,524,Wunderground v.1.15,2013-05-27 23:30:00,
2013-05-27 17:40:00,61.3,30.4,29.56,North,355,6.0,15.0,31,0.00,,,0.00,60,Wunderground v.1.15,2013-05-27 23:40:00,
2013-05-27 17:50:00,59.6,30.4,29.55,WNW,286,12.0,12.0,33,0.00,,,0.00,459,Wunderground v.1.15,2013-05-27 23:50:00,
2013-05-27 18:00:00,60.7,32.1,29.54,North,9,4.0,4.0,34,0.00,,,0.00,417,Wunderground v.1.15,2013-05-28 00:00:00,
2013-05-27 18:10:00,61.8,32.4,29.54,West,269,2.0,2.0,33,0.00,,,0.00,387,Wunderground v.1.15,2013-05-28 00:10:00,
2013-05-27 18:20:00,60.4,30.4,29.54,SE,128,4.0,6.0,32,0.00,,,0.00,350,Wunderground v.1.15,2013-05-28 00:20:00,
2013-05-27 18:30:00,60.4,28.0,29.53,North,355,6.0,6.0,29,0.00,,,0.00,313,Wunderground v.1.15,2013-05-28 00:30:00,
2013-05-27 18:40:00,61.2,27.8,29.54,SE,142,4.0,8.0,28,0.00,,,0.00,278,Wunderground v.1.15,2013-05-28 00:40:00,
2013-05-27 18:50:00,61.1,26.8,29.54,West,265,7.0,8.0,27,0.00,,,0.00,243,Wunderground v.1.15,2013-05-28 00:50:00,
2013-05-27 19:00:00,61.0,26.7,29.53,NNW,329,3.0,3.0,27,0.00,,,0.00,37,Wunderground v.1.15,2013-05-28 01:00:00,
2013-05-27 19:10:00,59.9,26.7,29.54,ESE,123,3.0,9.0,28,0.00,,,0.00,30,Wunderground v.1.15,2013-05-28 01:10:00,
2013-05-27 19:20:00,58.7,29.6,29.54,WSW,250,2.0,2.0,33,0.00,,,0.00,26,Wunderground v.1.15,2013-05-28 01:20:00,
2013-05-27 19:30:00,57.4,24.5,29.54,NNE,17,2.0,5.0,28,0.00,,,0.00,25,Wunderground v.1.15,2013-05-28 01:30:00,
2013-05-27 19:41:00,57.7,27.2,29.54,SSW,198,2.0,2.0,31,0.00,,,0.00,21,Wunderground v.1.15,2013-05-28 01:41:00,
2013-05-27 19:50:00,56.9,32.2,29.54,NE,50,0.0,5.0,39,0.00,,,0.00,19,Wunderground v.1.15,2013-05-28 01:50:00,
2013-05-27 20:00:00,54.0,30.8,29.54,North,5,1.0,1.0,41,0.00,,,0.00,14,Wunderground v.1.15,2013-05-28 02:00:00,
2013-05-27 20:11:00,51.5,29.1,29.55,NW,306,1.0,1.0,42,0.00,,,0.00,11,Wunderground v.1.15,2013-05-28 02:11:00,
2013-05-27 20:20:00,49.3,29.4,29.55,WNW,288,2.0,4.0,46,0.00,,,0.00,5,Wunderground v.1.15,2013-05-28 02:20:00,
2013-05-27 20:30:00,49.4,29.5,29.56,WNW,292,2.0,2.0,46,0.00,,,0.00,0,Wunderground v.1.15,2013-05-28 02:30:00,
2013-05-27 20:50:00,46.4,28.8,29.57,WNW,286,4.0,4.0,50,0.00,,,0.00,0,Wunderground v.1.15,2013-05-28 02:50:00,
2013-05-27 21:00:00,46.1,28.0,29.57,WNW,296,5.0,6.0,49,0.00,,,0.00,0,Wunderground v.1.15,2013-05-28 03:00:00,
2013-05-27 21:10:00,48.2,27.8,29.57,West,275,6.0,6.0,45,0.00,,,0.00,0,Wunderground v.1.15,2013-05-28 03:10:00,
2013-05-27 21:20:00,47.9,28.6,29.57,West,260,4.0,6.0,47,0.00,,,0.00,0,Wunderground v.1.15,2013-05-28 03:20:00,
2013-05-27 21:30:00,49.9,28.3,29.58,WSW,252,6.0,6.0,43,0.00,,,0.00,0,Wunderground v.1.15,2013-05-28 03:30:00,
2013-05-27 21:40:00,49.1,26.4,29.58,WNW,287,3.0,7.0,41,0.00,,,0.00,0,Wunderground v.1.15,2013-05-28 03:40:00,
2013-05-27 21:50:00,47.7,28.9,29.59,West,272,3.0,4.0,48,0.00,,,0.00,0,Wunderground v.1.15,2013-05-28 03:50:00,
2013-05-27 22:00:00,46.0,28.4,29.60,West,259,1.0,1.0,50,0.00,,,0.00,0,Wunderground v.1.15,2013-05-28 04:00:00,
2013-05-27 22:10:00,44.1,28.9,29.61,WSW,257,3.0,5.0,55,0.00,,,0.00,0,Wunderground v.1.15,2013-05-28 04:10:00,
2013-05-27 22:21:00,43.1,28.5,29.62,WSW,257,1.0,1.0,56,0.00,,,0.00,0,Wunderground v.1.15,2013-05-28 04:21:00,
2013-05-27 22:30:00,42.2,29.7,29.62,WSW,257,0.0,0.0,61,0.00,,,0.00,0,Wunderground v.1.15,2013-05-28 04:30:00,
2013-05-27 22:40:00,41.0,27.8,29.62,WSW,257,0.0,2.0,59,0.00,,,0.00,0,Wunderground v.1.15,2013-05-28 04:40:00,
2013-05-27 22:50:00,40.6,27.8,29.62,WSW,257,1.0,1.0,60,0.00,,,0.00,0,Wunderground v.1.15,2013-05-28 04:50:00,
2013-05-27 23:00:00,40.6,28.6,29.63,WSW,258,2.0,4.0,62,0.00,,,0.00,0,Wunderground v.1.15,2013-05-28 05:00:00,
2013-05-27 23:10:00,40.8,28.4,29.64,WSW,258,2.0,2.0,61,0.00,,,0.00,0,Wunderground v.1.15,2013-05-28 05:10:00,
2013-05-27 23:20:00,40.4,28.0,29.64,WSW,258,0.0,0.0,61,0.00,,,0.00,0,Wunderground v.1.15,2013-05-28 05:20:00,
2013-05-27 23:30:00,39.6,28.0,29.63,West,261,0.0,0.0,63,0.00,,,0.00,0,Wunderground v.1.15,2013-05-28 05:30:00,
2013-05-27 23:40:00,42.2,24.4,29.63,West,266,5.0,6.0,49,0.00,,,0.00,0,Wunderground v.1.15,2013-05-28 05:40:00,
2013-05-27 23:50:00,45.8,24.0,29.63,NW,326,5.0,5.0,42,0.00,,,0.00,0,Wunderground v.1.15,2013-05-28 05:50:00,